Time;durP1;ratioP1;P1;durP2;ratioP2;P2;SDS_P1;SDS_P2;PMS_P1;PMS_P2;Temp;Humidity;BMP_temperature;BMP_pressure;BME280_temperature;BME280_humidity;BME280_pressure;Samples;Min_cycle;Max_cycle;Signal;HPM_P1;HPM_P2
2023/01/29 00:00:22;;;;;;;17.67;6.43;;;;;;;-1.50;98.58;102283.13;6073530;28;20040;-72
2023/01/29 00:03:17;;;;;;;15.25;6.07;;;;;;;-1.47;98.57;102280.47;6060603;28;20392;-72
2023/01/29 00:06:12;;;;;;;13.97;5.63;;;;;;;-1.41;98.42;102291.59;6072066;28;20037;-74
2023/01/29 00:09:07;;;;;;;13.27;6.23;;;;;;;-1.37;98.50;102282.84;6070071;28;20032;-73
2023/01/29 00:12:03;;;;;;;19.40;7.70;;;;;;;-1.40;98.49;102272.50;6071599;28;20041;-73
2023/01/29 00:14:58;;;;;;;19.08;7.10;;;;;;;-1.41;98.04;102270.78;6072265;28;20103;-72
2023/01/29 00:17:53;;;;;;;15.63;5.83;;;;;;;-1.36;98.28;102275.91;6060334;28;20042;-74
2023/01/29 00:20:49;;;;;;;18.00;7.07;;;;;;;-1.32;98.89;102278.41;6063691;28;20033;-71
2023/01/29 00:23:44;;;;;;;21.40;6.93;;;;;;;-1.32;98.72;102275.81;6053891;28;20037;-74
2023/01/29 00:26:41;;;;;;;21.20;6.47;;;;;;;-1.27;99.11;102271.34;6072674;28;20033;-75
2023/01/29 00:29:36;;;;;;;21.52;7.43;;;;;;;-1.23;98.58;102267.81;6063152;28;20037;-74
2023/01/29 00:32:31;;;;;;;18.90;7.13;;;;;;;-1.26;99.19;102259.22;6076371;28;20038;-73
2023/01/29 00:35:27;;;;;;;14.47;6.10;;;;;;;-1.24;99.42;102271.28;6070450;28;20122;-71
2023/01/29 00:38:22;;;;;;;18.50;6.90;;;;;;;-1.35;98.87;102249.84;6076913;28;20037;-74
2023/01/29 00:47:45;;;;;;;15.60;6.82;;;;;;;-1.33;99.74;102242.84;6064824;28;20038;-74
2023/01/29 00:50:40;;;;;;;14.87;5.93;;;;;;;-1.29;100.00;102257.53;6073098;28;20041;-74
2023/01/29 00:53:35;;;;;;;18.40;6.63;;;;;;;-1.22;100.00;102263.44;6069542;28;20034;-73
2023/01/29 00:56:32;;;;;;;15.33;6.60;;;;;;;-1.24;100.00;102258.28;6074301;28;20049;-72
2023/01/29 00:59:27;;;;;;;16.20;6.65;;;;;;;-1.24;100.00;102255.69;6059132;28;20492;-72
2023/01/29 01:05:38;;;;;;;13.55;5.18;;;;;;;-1.20;100.00;102252.09;6076493;28;20025;-74
2023/01/29 01:11:46;;;;;;;17.95;6.25;;;;;;;-1.19;100.00;102255.56;6075163;28;20458;-72
2023/01/29 01:14:42;;;;;;;19.10;6.63;;;;;;;-1.31;99.89;102224.63;6075803;28;20046;-72
2023/01/29 01:17:37;;;;;;;12.90;5.80;;;;;;;-1.04;100.00;102264.78;6075135;28;20022;-73
2023/01/29 01:20:34;;;;;;;20.10;6.33;;;;;;;-1.10;100.00;102239.75;6076091;28;20052;-74
2023/01/29 01:23:30;;;;;;;20.63;6.30;;;;;;;-1.06;100.00;102233.56;6074510;28;20507;-70
2023/01/29 01:26:25;;;;;;;18.90;6.70;;;;;;;-1.04;100.00;102239.63;6075867;28;20033;-72
2023/01/29 01:29:20;;;;;;;16.38;6.30;;;;;;;-1.09;99.40;102232.81;6075078;28;20296;-73
2023/01/29 01:32:16;;;;;;;15.40;6.07;;;;;;;-1.18;100.00;102225.22;6074749;28;20041;-73
2023/01/29 01:35:13;;;;;;;16.30;7.10;;;;;;;-1.28;100.00;102207.19;6075246;28;20037;-73
2023/01/29 01:38:08;;;;;;;23.35;7.25;;;;;;;-1.22;100.00;102209.66;6075349;28;20036;-72
2023/01/29 01:41:04;;;;;;;17.80;6.17;;;;;;;-1.25;100.00;102204.53;6074173;28;20038;-72
2023/01/29 01:44:01;;;;;;;18.87;6.50;;;;;;;-1.23;100.00;102207.97;6074443;28;20116;-72
2023/01/29 01:46:59;;;;;;;21.67;7.38;;;;;;;-1.26;100.00;102196.75;6075291;28;20507;-71
2023/01/29 01:49:55;;;;;;;17.60;7.15;;;;;;;-1.22;100.00;102206.19;6073503;28;20033;-74
2023/01/29 01:52:54;;;;;;;20.45;7.07;;;;;;;-1.25;100.00;102203.69;6074429;28;20142;-71
2023/01/29 01:55:53;;;;;;;19.55;6.65;;;;;;;-1.25;99.99;102211.50;6057505;28;20048;-72
2023/01/29 01:58:51;;;;;;;23.67;8.02;;;;;;;-1.26;99.86;102207.16;6074820;28;20112;-71
2023/01/29 02:01:51;;;;;;;26.55;7.40;;;;;;;-1.18;99.34;102200.03;6089692;28;20455;-74
2023/01/29 02:11:15;;;;;;;22.65;7.88;;;;;;;-1.21;98.66;102200.97;6074131;28;20034;-74
2023/01/29 02:14:10;;;;;;;20.15;7.05;;;;;;;-1.12;98.96;102214.66;6072553;28;20477;-72
2023/01/29 02:17:11;;;;;;;19.05;7.60;;;;;;;-1.07;99.32;102228.44;6057105;28;20025;-74
2023/01/29 02:20:10;;;;;;;17.98;7.25;;;;;;;-1.07;98.90;102223.22;6074597;28;20377;-73
2023/01/29 02:23:34;;;;;;;20.75;7.15;;;;;;;-1.09;98.85;102225.00;6073817;28;20025;-73
2023/01/29 02:26:53;;;;;;;19.92;6.85;;;;;;;-1.06;98.93;102235.34;6074806;28;20034;-72
2023/01/29 02:29:57;;;;;;;20.35;7.63;;;;;;;-1.08;98.59;102230.16;6074086;28;20116;-73
2023/01/29 02:33:00;;;;;;;18.90;7.85;;;;;;;-1.20;98.60;102223.47;6055663;28;20110;-73
2023/01/29 02:36:26;;;;;;;23.58;7.88;;;;;;;-1.10;99.04;102229.34;6074300;28;20041;-71
2023/01/29 02:39:35;;;;;;;21.83;6.82;;;;;;;-1.02;97.85;102231.78;6083871;28;20041;-74
2023/01/29 02:42:46;;;;;;;21.27;7.15;;;;;;;-1.08;97.46;102226.69;6055663;28;20034;-73
2023/01/29 02:45:49;;;;;;;22.13;7.45;;;;;;;-1.05;98.09;102237.03;6071868;28;20246;-72
2023/01/29 02:48:53;;;;;;;17.55;6.53;;;;;;;-0.96;97.66;102236.84;6055959;28;20027;-73
2023/01/29 02:51:57;;;;;;;20.63;6.97;;;;;;;-0.91;97.54;102243.66;6080918;28;20378;-71
2023/01/29 02:54:56;;;;;;;20.30;7.75;;;;;;;-0.89;97.15;102254.88;6056244;28;20067;-73
2023/01/29 02:57:55;;;;;;;24.38;7.47;;;;;;;-0.92;98.00;102236.72;6068938;28;20034;-73
2023/01/29 03:00:51;;;;;;;25.98;8.25;;;;;;;-0.92;97.52;102225.44;6072828;28;20040;-72
2023/01/29 03:03:49;;;;;;;21.05;7.38;;;;;;;-0.80;97.04;102246.00;6073179;28;20033;-72
2023/01/29 03:06:48;;;;;;;17.23;6.85;;;;;;;-0.79;96.79;102239.91;6072427;28;20072;-71
2023/01/29 03:09:47;;;;;;;19.85;7.50;;;;;;;-0.69;96.47;102236.19;6071432;28;20116;-73
2023/01/29 03:12:46;;;;;;;17.20;7.35;;;;;;;-0.74;96.08;102238.06;6072897;28;20112;-72
2023/01/29 03:15:50;;;;;;;19.10;7.13;;;;;;;-0.73;96.90;102230.19;6055640;28;20037;-73
2023/01/29 03:18:50;;;;;;;23.65;9.13;;;;;;;-0.74;96.14;102220.69;6044617;28;20033;-71
2023/01/29 03:21:52;;;;;;;19.77;7.90;;;;;;;-0.76;96.44;102213.81;6072022;28;20761;-73
2023/01/29 03:34:43;;;;;;;25.05;8.32;;;;;;;-0.71;96.24;102224.97;6054789;28;19917;-71
2023/01/29 03:37:45;;;;;;;21.60;8.23;;;;;;;-0.73;95.89;102213.69;6080421;28;20029;-72
2023/01/29 03:40:52;;;;;;;20.13;7.43;;;;;;;-0.81;96.48;102215.63;6055323;28;20053;-72
2023/01/29 03:44:01;;;;;;;21.65;7.53;;;;;;;-0.63;96.55;102225.63;6071576;28;20130;-72
2023/01/29 03:47:18;;;;;;;21.15;7.75;;;;;;;-0.70;96.40;102214.50;6066732;28;20026;-71
2023/01/29 03:50:47;;;;;;;24.05;8.25;;;;;;;-0.72;96.37;102205.00;6072402;28;20568;-72
2023/01/29 03:53:57;;;;;;;24.52;8.50;;;;;;;-0.74;96.68;102207.66;6072461;28;20072;-73
2023/01/29 03:57:21;;;;;;;21.92;7.68;;;;;;;-0.86;96.86;102186.25;6055231;28;20107;-71
2023/01/29 04:00:29;;;;;;;24.55;9.15;;;;;;;-0.87;97.55;102188.00;6087330;28;20140;-71
2023/01/29 04:03:36;;;;;;;20.73;7.68;;;;;;;-0.82;96.64;102186.16;6072083;28;20029;-71
2023/01/29 04:06:35;;;;;;;23.75;8.70;;;;;;;-0.94;96.72;102177.78;6077876;28;20120;-72
2023/01/29 04:09:38;;;;;;;21.77;8.07;;;;;;;-0.95;97.49;102176.09;6059462;28;20025;-73
2023/01/29 04:12:42;;;;;;;21.20;7.80;;;;;;;-0.87;97.62;102175.00;6076355;28;20057;-72
2023/01/29 04:15:44;;;;;;;22.23;7.85;;;;;;;-0.93;97.21;102169.97;6076154;28;20034;-71
2023/01/29 04:18:43;;;;;;;27.15;9.20;;;;;;;-1.08;97.53;102143.41;6060051;28;20031;-73
2023/01/29 04:21:39;;;;;;;22.27;8.30;;;;;;;-1.12;97.87;102144.41;6052203;28;20034;-70
2023/01/29 04:24:35;;;;;;;22.95;7.82;;;;;;;-1.06;98.52;102162.47;6085959;28;20037;-70
2023/01/29 04:27:40;;;;;;;24.83;9.10;;;;;;;-1.03;98.59;102157.19;6076958;28;20468;-72
2023/01/29 04:30:41;;;;;;;27.48;9.50;;;;;;;-1.05;98.30;102154.63;6059484;28;20374;-72
2023/01/29 04:33:55;;;;;;;23.77;9.13;;;;;;;-1.02;97.83;102145.88;6076200;28;20072;-71
2023/01/29 04:37:01;;;;;;;26.73;8.85;;;;;;;-1.22;97.50;102097.78;6076733;28;20037;-72
2023/01/29 04:40:14;;;;;;;27.17;9.07;;;;;;;-0.99;98.19;102122.38;6066698;28;20033;-71
2023/01/29 04:43:44;;;;;;;22.63;8.30;;;;;;;-0.96;97.20;102124.91;6074891;28;20049;-73
2023/01/29 04:46:48;;;;;;;24.45;8.82;;;;;;;-1.00;97.59;102112.84;6059163;28;20480;-72
2023/01/29 04:49:58;;;;;;;23.42;9.13;;;;;;;-1.08;97.63;102091.38;6058991;28;20055;-72
2023/01/29 04:53:02;;;;;;;22.23;8.55;;;;;;;-0.99;97.52;102101.56;6074717;28;20029;-70
2023/01/29 04:56:21;;;;;;;23.70;8.95;;;;;;;-0.98;97.95;102108.50;6076593;28;20036;-73
2023/01/29 04:59:22;;;;;;;23.35;8.45;;;;;;;-1.01;97.48;102099.00;6076670;28;20030;-71
2023/01/29 05:02:18;;;;;;;;;;;;;;;-0.98;96.86;102103.28;6058587;28;20459;-71
2023/01/29 05:05:15;;;;;;;24.23;7.60;;;;;;;-0.96;97.63;102096.28;6058995;28;19924;-70
2023/01/29 05:08:13;;;;;;;23.40;8.77;;;;;;;-1.04;97.86;102086.06;6075070;28;20069;-74
2023/01/29 05:11:09;;;;;;;27.08;8.82;;;;;;;-1.05;97.74;102086.09;6075263;28;20120;-72
2023/01/29 05:14:06;;;;;;;23.92;8.23;;;;;;;-0.96;98.22;102106.69;6074034;28;20049;-73
2023/01/29 05:17:04;;;;;;;22.35;7.43;;;;;;;-0.94;97.63;102095.34;6075278;28;20037;-71
2023/01/29 05:19:59;;;;;;;24.13;7.55;;;;;;;-0.96;97.69;102089.34;6057788;28;20035;-71
2023/01/29 05:22:55;;;;;;;25.30;9.07;;;;;;;-0.88;97.37;102089.13;6074556;28;20037;-72
2023/01/29 05:25:50;;;;;;;23.07;8.53;;;;;;;-0.83;97.40;102088.13;6058158;28;20400;-72
2023/01/29 05:28:46;;;;;;;20.38;7.28;;;;;;;-0.81;97.46;102082.84;6050720;28;20033;-73
2023/01/29 05:31:43;;;;;;;20.17;7.80;;;;;;;-0.80;97.14;102089.78;6076158;28;20041;-71
2023/01/29 05:34:38;;;;;;;20.85;8.35;;;;;;;-0.74;96.72;102087.88;6072570;28;20044;-71
2023/01/29 05:37:33;;;;;;;28.10;9.23;;;;;;;-0.67;96.21;102094.63;6073799;28;20029;-71
2023/01/29 05:40:28;;;;;;;24.57;7.87;;;;;;;-0.71;96.28;102086.94;6068027;28;20566;-71
2023/01/29 05:43:24;;;;;;;25.20;9.43;;;;;;;-0.62;96.17;102103.16;6057060;28;20042;-73
2023/01/29 05:46:20;;;;;;;23.25;8.25;;;;;;;-0.58;95.81;102098.75;6075884;28;20037;-72
2023/01/29 05:49:16;;;;;;;24.43;9.43;;;;;;;-0.56;95.49;102090.88;6069994;28;20163;-72
2023/01/29 05:52:12;;;;;;;22.05;8.15;;;;;;;-0.56;95.02;102096.06;6074694;28;20087;-71
2023/01/29 05:55:09;;;;;;;24.90;8.40;;;;;;;-0.61;95.92;102093.59;6068800;28;20037;-71
2023/01/29 05:58:05;;;;;;;27.08;8.68;;;;;;;-0.58;95.20;102101.34;6074127;28;20507;-71
2023/01/29 06:01:15;;;;;;;24.30;8.35;;;;;;;-0.58;95.24;102098.75;6064101;28;20033;-72
2023/01/29 06:04:11;;;;;;;25.67;7.45;;;;;;;-0.53;94.96;102128.13;6072094;28;20152;-72
2023/01/29 06:07:06;;;;;;;27.17;10.63;;;;;;;-0.54;95.13;102128.19;6075273;28;20594;-72
2023/01/29 06:10:02;;;;;;;21.03;7.83;;;;;;;-0.56;95.16;102132.53;6067309;28;20276;-71
2023/01/29 06:12:57;;;;;;;23.90;8.15;;;;;;;-0.47;95.03;102137.53;6073987;28;20033;-71
2023/01/29 06:15:53;;;;;;;22.90;8.37;;;;;;;-0.49;94.69;102136.72;6074537;28;20112;-72
2023/01/29 06:18:48;;;;;;;22.60;8.87;;;;;;;-0.53;93.91;102124.66;6074807;28;20040;-71
2023/01/29 06:21:43;;;;;;;25.80;8.80;;;;;;;-0.52;93.75;102135.03;6074247;28;20040;-71
2023/01/29 06:24:39;;;;;;;29.07;9.50;;;;;;;-0.42;94.10;102146.91;6068358;28;20037;-72
2023/01/29 06:27:34;;;;;;;23.97;8.07;;;;;;;-0.45;94.22;102120.09;6072198;28;20041;-72
2023/01/29 06:30:30;;;;;;;26.33;9.30;;;;;;;-0.44;94.52;102116.59;6073183;28;20041;-71
2023/01/29 06:33:26;;;;;;;25.05;7.53;;;;;;;-0.49;94.22;102114.09;6073863;28;20048;-72
2023/01/29 06:36:21;;;;;;;23.42;8.18;;;;;;;-0.50;93.94;102099.38;6072931;28;20037;-71
2023/01/29 06:39:16;;;;;;;23.60;8.70;;;;;;;-0.44;93.74;102109.66;6074428;28;20041;-72
2023/01/29 06:42:12;;;;;;;25.23;8.83;;;;;;;-0.42;93.96;102113.06;6073423;28;20267;-71
2023/01/29 06:45:07;;;;;;;22.17;8.45;;;;;;;-0.52;94.11;102098.56;6069783;28;20124;-71
2023/01/29 06:48:03;;;;;;;21.25;8.98;;;;;;;-0.42;93.67;102107.84;6072301;28;20030;-71
2023/01/29 06:51:04;;;;;;;26.87;9.27;;;;;;;-0.37;93.93;102129.41;6074148;28;20071;-70
2023/01/29 06:53:59;;;;;;;27.55;9.38;;;;;;;-0.47;93.66;102109.72;6064756;28;20025;-71
2023/01/29 06:56:55;;;;;;;25.37;8.07;;;;;;;-0.40;94.06;102128.63;6073985;28;20392;-70
2023/01/29 06:59:50;;;;;;;25.75;9.18;;;;;;;-0.42;94.14;102118.25;6074127;28;20021;-70
2023/01/29 07:02:48;;;;;;;26.17;8.90;;;;;;;-0.33;93.10;102125.84;6066176;28;20043;-70
2023/01/29 07:05:49;;;;;;;21.52;7.95;;;;;;;-0.41;93.23;102106.97;6074013;28;20034;-70
2023/01/29 07:08:45;;;;;;;;;;;;;;;-0.29;93.38;102132.66;6071023;28;20567;-71
2023/01/29 07:11:40;;;;;;;20.77;7.53;;;;;;;-0.32;92.76;102137.94;6073021;28;19939;-71
2023/01/29 07:14:35;;;;;;;25.97;9.83;;;;;;;-0.36;92.58;102154.59;6073204;28;20030;-71
2023/01/29 07:17:31;;;;;;;27.38;9.13;;;;;;;-0.28;92.74;102160.44;6069977;28;20755;-71
2023/01/29 07:20:28;;;;;;;20.30;8.47;;;;;;;-0.34;92.66;102144.97;6073663;28;20037;-71
2023/01/29 07:23:23;;;;;;;27.40;8.75;;;;;;;-0.26;92.26;102157.78;6069908;28;20041;-71
2023/01/29 07:26:18;;;;;;;26.85;8.95;;;;;;;-0.20;91.99;102152.41;6073762;28;20034;-71
2023/01/29 07:29:14;;;;;;;25.23;9.17;;;;;;;-0.20;92.32;102149.78;6055465;28;20040;-71
2023/01/29 07:32:09;;;;;;;25.97;8.70;;;;;;;-0.19;91.80;102138.50;6067107;28;20056;-70
2023/01/29 07:35:04;;;;;;;23.03;8.47;;;;;;;-0.16;91.78;102133.16;6073662;28;20392;-71
2023/01/29 07:38:00;;;;;;;26.00;9.82;;;;;;;-0.15;90.96;102127.06;6065134;28;20037;-71
2023/01/29 07:40:55;;;;;;;27.07;8.97;;;;;;;-0.18;91.46;102103.69;6076550;28;20037;-70
2023/01/29 07:43:50;;;;;;;25.97;8.93;;;;;;;-0.17;91.03;102101.06;6077813;28;20029;-71
2023/01/29 07:46:46;;;;;;;24.73;10.17;;;;;;;-0.19;91.17;102097.63;6078215;28;20404;-71
2023/01/29 07:49:41;;;;;;;27.15;9.68;;;;;;;-0.10;91.08;102127.78;6078374;28;20183;-71
2023/01/29 07:52:36;;;;;;;23.37;8.40;;;;;;;-0.16;91.80;102112.31;6074742;28;20116;-72
2023/01/29 07:55:32;;;;;;;28.17;10.30;;;;;;;-0.16;91.14;102092.31;6077989;28;20114;-70
2023/01/29 07:58:27;;;;;;;27.23;8.60;;;;;;;-0.17;91.17;102064.56;6070563;28;20026;-70
2023/01/29 08:01:23;;;;;;;25.97;8.73;;;;;;;-0.06;91.10;102074.69;6077460;28;20052;-71
2023/01/29 08:04:18;;;;;;;27.17;9.73;;;;;;;-0.13;91.37;102068.78;6076658;28;20163;-71
2023/01/29 08:07:13;;;;;;;29.93;10.40;;;;;;;-0.09;91.38;102078.22;6077735;28;20033;-72
2023/01/29 08:10:10;;;;;;;25.63;9.20;;;;;;;0.02;90.81;102096.16;6077615;28;20032;-71
2023/01/29 08:13:05;;;;;;;31.77;11.35;;;;;;;-0.10;91.15;102081.72;6076482;28;20033;-72
2023/01/29 08:16:02;;;;;;;29.00;9.93;;;;;;;-0.18;91.58;102070.66;6077126;28;20026;-72
2023/01/29 08:18:57;;;;;;;30.20;11.35;;;;;;;-0.14;91.16;102074.03;6076802;28;20040;-72
2023/01/29 08:21:52;;;;;;;28.33;9.33;;;;;;;-0.10;91.59;102073.03;6076461;28;20033;-71
2023/01/29 08:24:47;;;;;;;29.37;10.40;;;;;;;-0.02;92.25;102079.75;6077598;28;20595;-72
2023/01/29 08:27:43;;;;;;;27.00;9.40;;;;;;;-0.22;93.21;102071.63;6076716;28;20033;-73
2023/01/29 08:30:38;;;;;;;30.33;9.60;;;;;;;-0.23;94.09;102074.31;6077422;28;20095;-74
2023/01/29 08:33:33;;;;;;;33.38;11.70;;;;;;;-0.26;95.47;102075.25;6076124;28;20037;-73
2023/01/29 08:36:29;;;;;;;34.03;11.43;;;;;;;-0.39;96.49;102063.47;6077153;28;20045;-72
2023/01/29 08:39:24;;;;;;;33.63;12.37;;;;;;;-0.28;96.76;102097.91;6077311;28;20131;-72
2023/01/29 08:42:19;;;;;;;32.77;12.03;;;;;;;-0.33;98.40;102084.16;6074722;28;20115;-72
2023/01/29 08:45:14;;;;;;;32.43;10.63;;;;;;;-0.39;98.60;102079.09;6077009;28;20120;-71
2023/01/29 08:48:10;;;;;;;38.07;11.57;;;;;;;-0.36;99.73;102085.97;6076736;28;20041;-71
2023/01/29 08:51:05;;;;;;;35.22;11.40;;;;;;;-0.35;99.42;102080.72;6075859;28;20038;-71
2023/01/29 08:54:01;;;;;;;36.00;11.80;;;;;;;-0.41;100.00;102060.06;6076001;28;20087;-72
2023/01/29 08:56:56;;;;;;;31.37;11.23;;;;;;;-0.43;100.00;102066.19;6076156;28;20639;-71
2023/01/29 08:59:51;;;;;;;31.80;11.20;;;;;;;-0.33;99.54;102078.94;6076847;28;20029;-71
2023/01/29 09:02:46;;;;;;;37.60;12.10;;;;;;;-0.26;99.43;102070.03;6073638;28;20038;-73
2023/01/29 09:05:42;;;;;;;39.83;11.83;;;;;;;-0.09;98.81;102073.00;6076478;28;20037;-73
2023/01/29 09:08:37;;;;;;;28.43;11.33;;;;;;;-0.11;97.43;102042.69;6075926;28;20033;-70
2023/01/29 09:11:33;;;;;;;30.52;10.60;;;;;;;0.05;97.09;102058.72;6076405;28;20068;-73
2023/01/29 09:14:28;;;;;;;30.83;9.80;;;;;;;0.04;96.89;102030.91;6074668;28;20029;-74
2023/01/29 09:17:23;;;;;;;32.53;11.10;;;;;;;0.18;95.77;102033.97;6075504;28;20419;-74
2023/01/29 09:20:19;;;;;;;29.73;11.53;;;;;;;0.10;94.66;102026.38;6076210;28;20026;-72
2023/01/29 09:23:14;;;;;;;31.50;10.98;;;;;;;0.19;94.70;102036.50;6075559;28;20129;-73
2023/01/29 09:26:09;;;;;;;28.17;10.83;;;;;;;0.09;94.32;101997.72;6075982;28;20033;-73
2023/01/29 09:29:05;;;;;;;25.80;10.33;;;;;;;0.35;94.33;102023.84;6048474;28;20093;-74
2023/01/29 09:32:00;;;;;;;33.22;10.65;;;;;;;0.44;94.30;102026.16;6056835;28;20061;-72
2023/01/29 09:34:56;;;;;;;30.73;10.53;;;;;;;0.40;93.70;102019.34;6052735;28;20073;-73
2023/01/29 09:37:51;;;;;;;28.00;10.02;;;;;;;0.41;93.72;102015.81;6059373;28;20112;-74
2023/01/29 09:41:03;;;;;;;28.43;10.00;;;;;;;0.48;93.26;102031.25;6048448;28;20045;-75
2023/01/29 09:44:02;;;;;;;30.88;10.35;;;;;;;0.48;92.48;102038.22;6052731;28;20647;-72
2023/01/29 09:46:59;;;;;;;26.95;9.77;;;;;;;0.45;92.32;102033.94;6073000;28;20440;-74
2023/01/29 09:49:58;;;;;;;31.38;10.50;;;;;;;0.46;93.46;102026.97;6072140;28;20033;-75
2023/01/29 09:53:16;;;;;;;32.67;10.98;;;;;;;0.54;94.08;102022.38;6058247;28;20083;-75
2023/01/29 09:56:16;;;;;;;26.83;8.63;;;;;;;0.49;93.40;102019.06;6058040;28;20038;-74
2023/01/29 09:59:13;;;;;;;28.30;10.77;;;;;;;0.49;93.17;102011.22;6070044;28;20588;-76
2023/01/29 10:02:16;;;;;;;29.65;11.20;;;;;;;0.54;93.01;102011.94;6051976;28;20037;-73
2023/01/29 10:05:45;;;;;;;33.42;10.73;;;;;;;0.53;93.35;101995.41;6065867;28;20735;-73
2023/01/29 10:09:06;;;;;;;33.45;12.25;;;;;;;0.66;93.33;101995.84;6052037;28;20048;-72
2023/01/29 10:12:28;;;;;;;42.63;12.73;;;;;;;0.72;93.22;101995.66;6064447;28;20281;-72
2023/01/29 10:15:58;;;;;;;46.92;18.20;;;;;;;0.77;93.08;102019.81;6050958;28;20105;-71
2023/01/29 10:19:05;;;;;;;44.88;16.00;;;;;;;0.68;92.32;101999.25;6071709;28;20477;-72
2023/01/29 10:22:19;;;;;;;31.80;11.43;;;;;;;0.76;92.64;102014.66;6053286;28;20073;-74
2023/01/29 10:25:19;;;;;;;38.78;12.02;;;;;;;0.70;92.81;101991.38;6065157;28;20045;-71
2023/01/29 10:28:17;;;;;;;32.33;12.07;;;;;;;0.71;92.49;101996.53;6050397;28;20057;-71
2023/01/29 10:31:17;;;;;;;29.05;9.95;;;;;;;0.75;92.73;102010.34;6062294;28;20088;-74
2023/01/29 10:34:23;;;;;;;42.58;14.25;;;;;;;0.84;93.42;102016.13;6087263;28;20041;-74
2023/01/29 10:37:35;;;;;;;32.00;10.82;;;;;;;0.87;93.48;102004.72;6057831;28;20501;-73
2023/01/29 10:40:38;;;;;;;29.33;10.35;;;;;;;0.76;93.23;101994.63;6049613;28;20113;-73
2023/01/29 10:44:07;;;;;;;31.83;11.60;;;;;;;0.79;93.48;102004.97;6070753;28;20453;-73
2023/01/29 10:47:29;;;;;;;35.42;11.30;;;;;;;0.66;93.18;101980.19;6062180;28;20029;-73
2023/01/29 10:50:39;;;;;;;38.13;12.43;;;;;;;0.72;92.59;101979.97;6058322;28;20081;-72
2023/01/29 10:53:55;;;;;;;35.38;10.93;;;;;;;0.82;92.71;101980.50;6044944;28;20042;-73
2023/01/29 10:57:02;;;;;;;32.33;12.32;;;;;;;0.70;92.92;101960.91;6049673;28;20026;-73
2023/01/29 11:00:05;;;;;;;34.83;13.73;;;;;;;0.85;92.67;101965.59;6042012;28;20528;-72
2023/01/29 11:03:15;;;;;;;33.67;12.45;;;;;;;0.94;92.58;101962.66;6041207;28;20549;-73
2023/01/29 11:06:22;;;;;;;35.20;10.27;;;;;;;0.92;91.94;101941.00;6049592;28;20038;-74
2023/01/29 11:09:30;;;;;;;29.83;10.00;;;;;;;0.91;91.56;101957.56;6049618;28;20496;-74
2023/01/29 11:12:29;;;;;;;33.15;10.93;;;;;;;0.94;91.38;101949.63;6038406;28;20030;-72
2023/01/29 11:15:29;;;;;;;27.45;9.75;;;;;;;0.92;90.90;101942.75;6065044;28;20030;-74
2023/01/29 11:18:24;;;;;;;33.47;11.80;;;;;;;0.83;91.45;101940.44;6049608;28;20029;-75
2023/01/29 11:21:20;;;;;;;31.90;11.33;;;;;;;0.80;91.27;101930.13;6069154;28;20033;-73
2023/01/29 11:24:16;;;;;;;32.35;10.90;;;;;;;0.73;91.64;101920.81;6047607;28;20441;-74
2023/01/29 11:27:20;;;;;;;27.65;9.27;;;;;;;0.87;91.85;101937.66;6049055;28;20038;-74
2023/01/29 11:30:29;;;;;;;27.30;9.98;;;;;;;0.89;91.64;101925.44;6043990;28;20093;-71
2023/01/29 11:33:24;;;;;;;26.85;9.73;;;;;;;0.86;91.15;101902.03;6050150;28;20053;-72
2023/01/29 11:36:36;;;;;;;35.33;11.65;;;;;;;0.99;91.22;101911.13;6060290;28;20595;-74
2023/01/29 11:39:32;;;;;;;24.23;9.68;;;;;;;1.01;91.73;101901.47;6049088;28;20405;-73
2023/01/29 11:42:30;;;;;;;30.60;10.30;;;;;;;1.03;91.33;101886.59;6047692;28;20030;-70
2023/01/29 11:45:31;;;;;;;26.05;9.00;;;;;;;1.11;91.02;101894.16;6037959;28;20030;-71
2023/01/29 11:48:32;;;;;;;32.63;11.05;;;;;;;1.15;91.49;101900.97;6044679;28;20030;-72
2023/01/29 11:51:28;;;;;;;27.20;9.65;;;;;;;1.11;91.14;101897.59;6052999;28;20030;-72
2023/01/29 11:54:28;;;;;;;34.17;13.95;;;;;;;0.99;90.54;101874.56;6047445;28;20041;-73
2023/01/29 11:57:26;;;;;;;33.78;11.07;;;;;;;1.06;90.55;101889.09;6048335;28;20038;-69
2023/01/29 12:00:25;;;;;;;31.67;10.95;;;;;;;1.07;91.15;101884.72;6048124;28;20042;-73
2023/01/29 12:03:27;;;;;;;26.23;9.50;;;;;;;1.03;90.42;101863.09;6061280;28;20116;-72
2023/01/29 12:06:33;;;;;;;38.42;15.80;;;;;;;1.08;89.83;101871.63;6048871;28;20030;-73
2023/01/29 12:09:29;;;;;;;35.97;13.00;;;;;;;1.14;89.67;101853.09;6063378;28;20132;-72
2023/01/29 12:12:38;;;;;;;31.75;10.23;;;;;;;1.20;89.89;101841.56;6044963;28;20042;-70
2023/01/29 12:15:33;;;;;;;29.60;11.02;;;;;;;1.22;88.72;101838.91;6047304;28;20030;-69
2023/01/29 12:18:37;;;;;;;36.63;14.25;;;;;;;1.20;89.36;101829.34;6075151;28;20425;-70
2023/01/29 12:21:39;;;;;;;26.45;10.52;;;;;;;1.22;88.93;101826.72;6065999;28;20392;-71
2023/01/29 12:24:34;;;;;;;28.60;10.82;;;;;;;1.30;88.96;101842.06;6067403;28;20053;-72
2023/01/29 12:27:30;;;;;;;31.40;11.05;;;;;;;1.30;88.52;101842.06;6061005;28;20582;-70
2023/01/29 12:30:43;;;;;;;27.85;10.32;;;;;;;1.32;88.52;101835.88;6052859;28;20041;-71
2023/01/29 12:34:21;;;;;;;25.73;9.50;;;;;;;1.28;88.19;101838.69;6051127;28;20608;-69
2023/01/29 12:37:21;;;;;;;51.85;18.38;;;;;;;1.27;88.85;101839.56;6048436;28;20041;-74
2023/01/29 12:40:17;;;;;;;37.35;12.65;;;;;;;1.19;88.97;101819.84;6063616;28;20040;-70
2023/01/29 12:43:17;;;;;;;27.42;10.52;;;;;;;1.17;88.61;101829.47;6054332;28;20441;-70
2023/01/29 12:46:21;;;;;;;29.58;11.48;;;;;;;1.18;89.05;101844.25;6052540;28;20393;-73
2023/01/29 12:49:32;;;;;;;23.15;10.07;;;;;;;1.26;89.14;101830.03;6067137;28;20442;-70
2023/01/29 12:52:40;;;;;;;25.80;9.68;;;;;;;1.24;89.06;101829.25;6056406;28;20044;-69
2023/01/29 12:55:39;;;;;;;25.92;9.30;;;;;;;1.22;88.29;101828.47;6072449;28;20045;-71
2023/01/29 12:58:47;;;;;;;29.58;10.65;;;;;;;1.19;88.78;101819.84;6085393;28;20057;-70
2023/01/29 13:01:47;;;;;;;29.02;9.43;;;;;;;1.27;88.87;101810.84;6069228;28;20038;-71
2023/01/29 13:04:46;;;;;;;29.95;10.20;;;;;;;1.20;88.50;101803.25;6091363;28;20125;-71
2023/01/29 13:07:46;;;;;;;30.65;10.68;;;;;;;1.18;88.67;101796.38;6067781;28;20033;-69
2023/01/29 13:10:44;;;;;;;28.40;10.07;;;;;;;1.31;88.58;101799.34;6057889;28;20041;-71
2023/01/29 13:13:53;;;;;;;27.65;10.25;;;;;;;1.28;88.21;101800.31;6051628;28;20037;-71
2023/01/29 13:16:51;;;;;;;33.13;11.70;;;;;;;1.34;88.04;101801.84;6056573;28;20085;-71
2023/01/29 13:19:50;;;;;;;27.77;9.13;;;;;;;1.40;87.71;101801.59;6069278;28;20038;-70
2023/01/29 13:22:45;;;;;;;26.90;9.48;;;;;;;1.36;87.18;101785.19;6044279;28;20040;-71
2023/01/29 13:25:42;;;;;;;19.98;8.05;;;;;;;1.42;87.22;101786.72;6068428;28;20045;-71
2023/01/29 13:28:38;;;;;;;24.83;7.75;;;;;;;1.45;86.50;101773.53;6080581;28;20080;-70
2023/01/29 13:31:35;;;;;;;34.33;14.15;;;;;;;1.46;86.94;101759.56;6066620;28;20037;-69
2023/01/29 13:34:34;;;;;;;41.90;19.55;;;;;;;1.51;87.40;101765.44;6071217;28;20252;-69
2023/01/29 13:37:32;;;;;;;37.78;15.65;;;;;;;1.35;88.12;101730.41;6087747;28;20050;-69
2023/01/29 13:40:30;;;;;;;34.03;12.63;;;;;;;1.40;87.99;101754.56;6057462;28;20058;-70
2023/01/29 13:43:26;;;;;;;22.55;9.98;;;;;;;1.43;88.66;101739.63;6064215;28;20500;-70
2023/01/29 13:46:21;;;;;;;29.83;11.52;;;;;;;1.51;87.88;101736.69;6059641;28;20449;-71
2023/01/29 13:49:26;;;;;;;24.83;9.60;;;;;;;1.43;87.41;101718.72;6066363;28;20026;-69
2023/01/29 13:52:38;;;;;;;23.42;8.63;;;;;;;1.46;87.46;101723.84;6068773;28;20392;-70
2023/01/29 13:55:36;;;;;;;19.95;7.95;;;;;;;1.60;87.15;101720.66;6069602;28;20041;-70
2023/01/29 13:58:31;;;;;;;22.35;8.13;;;;;;;1.67;86.99;101740.38;6051228;28;20029;-70
2023/01/29 14:01:45;;;;;;;24.63;8.30;;;;;;;1.67;86.89;101733.38;6058275;28;20112;-73
2023/01/29 14:04:40;;;;;;;23.60;8.70;;;;;;;1.66;86.71;101715.13;6068560;28;20029;-69
2023/01/29 14:07:44;;;;;;;22.10;8.30;;;;;;;1.74;87.45;101708.66;6072234;28;20030;-70
2023/01/29 14:10:41;;;;;;;22.05;8.88;;;;;;;1.67;87.65;101701.16;6060801;28;20116;-71
2023/01/29 14:13:37;;;;;;;25.65;9.52;;;;;;;1.60;86.79;101691.91;6049409;28;20038;-71
2023/01/29 14:16:34;;;;;;;24.55;9.20;;;;;;;1.78;87.57;101714.63;6058406;28;20070;-69